createdAt,value
2019-05-01T00:04:53.931Z,26.80
2019-05-01T00:09:57.529Z,32.50
2019-05-01T00:15:01.083Z,39.97
2019-05-01T00:20:05.724Z,37.33
2019-05-01T00:25:09.186Z,31.07
2019-05-01T00:30:15.915Z,34.63
2019-05-01T00:35:19.282Z,31.00
2019-05-01T00:40:22.697Z,33.00
2019-05-01T00:45:26.158Z,34.90
2019-05-01T00:50:29.538Z,39.87
2019-05-01T00:55:43.617Z,37.07
2019-05-01T01:01:06.797Z,38.17
2019-05-01T01:06:10.283Z,36.50
2019-05-01T01:11:13.884Z,37.10
2019-05-01T01:16:17.374Z,36.87
2019-05-01T01:21:20.808Z,39.27
2019-05-01T01:26:24.305Z,39.80
2019-05-01T01:31:27.878Z,41.90
2019-05-01T01:36:31.303Z,39.10
2019-05-01T01:41:35.576Z,39.70
2019-05-01T01:46:43.817Z,40.40
2019-05-01T01:51:47.247Z,38.10
2019-05-01T01:56:51.464Z,40.70
2019-05-01T02:01:59.393Z,36.20
2019-05-01T02:07:02.870Z,40.33
2019-05-01T02:12:06.549Z,41.13
2019-05-01T02:17:09.964Z,41.83
2019-05-01T02:22:13.380Z,40.03
2019-05-01T02:27:24.180Z,43.70
2019-05-01T02:32:29.272Z,41.23
2019-05-01T02:37:34.440Z,38.97
2019-05-01T02:42:40.373Z,41.03
2019-05-01T02:47:44.925Z,39.07
2019-05-01T02:52:48.394Z,37.60
2019-05-01T02:57:52.353Z,47.00
2019-05-01T03:02:56.608Z,38.80
2019-05-01T03:08:00.152Z,44.63
2019-05-01T03:13:05.694Z,38.33
2019-05-01T03:18:29.023Z,52.37
2019-05-01T03:23:34.357Z,38.80
2019-05-01T03:28:38.416Z,42.20
2019-05-01T03:33:41.962Z,49.07
2019-05-01T03:38:45.499Z,53.40
2019-05-01T03:43:49.004Z,47.73
2019-05-01T03:48:52.465Z,64.40
2019-05-01T03:53:55.899Z,47.33
2019-05-01T03:59:00.146Z,55.87
2019-05-01T04:04:05.369Z,45.60
2019-05-01T04:09:08.845Z,47.77
2019-05-01T04:14:12.870Z,56.00
2019-05-01T04:19:16.831Z,58.93
2019-05-01T04:24:20.243Z,60.93
2019-05-01T04:29:26.646Z,56.43
2019-05-01T04:34:46.801Z,54.47
2019-05-01T04:39:50.974Z,60.00
2019-05-01T04:44:54.461Z,62.27
2019-05-01T04:49:57.954Z,48.07
2019-05-01T04:55:01.634Z,60.67
2019-05-01T05:00:07.476Z,56.60
2019-05-01T05:05:11.556Z,63.17
2019-05-01T05:10:14.993Z,67.03
2019-05-01T05:15:29.110Z,56.90
2019-05-01T05:20:32.694Z,56.57
2019-05-01T05:25:36.174Z,48.97
2019-05-01T05:30:41.941Z,59.03
2019-05-01T05:35:48.374Z,56.73
2019-05-01T05:40:52.713Z,52.83
2019-05-01T05:45:56.342Z,64.37
2019-05-01T05:51:07.979Z,56.97
2019-05-01T05:56:48.889Z,49.60
2019-05-01T06:02:02.127Z,55.63
2019-05-01T06:07:11.945Z,59.23
2019-05-01T06:12:37.222Z,58.17
2019-05-01T06:17:42.502Z,63.63
2019-05-01T06:23:07.514Z,59.80
2019-05-01T06:28:11.667Z,66.83
2019-05-01T06:33:16.226Z,58.13
2019-05-01T06:38:20.513Z,59.20
2019-05-01T06:43:40.496Z,57.87
2019-05-01T06:48:53.469Z,55.63
2019-05-01T06:53:55.852Z,61.90
2019-05-01T06:58:59.638Z,54.53
2019-05-01T07:04:04.087Z,63.10
2019-05-01T07:09:11.834Z,57.03
2019-05-01T07:14:16.462Z,65.30
2019-05-01T07:19:21.185Z,60.77
2019-05-01T07:24:28.048Z,64.83
2019-05-01T07:29:32.986Z,60.53
2019-05-01T07:34:36.617Z,60.13
2019-05-01T07:39:44.926Z,50.53
2019-05-01T07:44:47.619Z,59.20
2019-05-01T07:49:54.805Z,53.73
2019-05-01T07:54:58.699Z,49.40
2019-05-01T08:00:08.147Z,53.33
2019-05-01T08:05:11.604Z,51.57
2019-05-01T08:10:14.723Z,50.43
2019-05-01T08:15:22.614Z,56.10
2019-05-01T08:20:34.037Z,45.77
2019-05-01T08:25:37.526Z,48.73
2019-05-01T08:30:42.598Z,54.17
2019-05-01T08:35:46.037Z,55.73
2019-05-01T08:40:50.778Z,50.87
2019-05-01T08:46:05.218Z,48.63
2019-05-01T08:51:08.824Z,51.73
2019-05-01T08:56:12.326Z,51.13
2019-05-01T09:01:16.375Z,46.83
2019-05-01T09:06:19.864Z,46.07
2019-05-01T09:11:23.289Z,45.97
2019-05-01T09:16:28.263Z,46.40
2019-05-01T09:21:33.188Z,43.27
2019-05-01T09:26:38.708Z,42.10
2019-05-01T09:31:42.285Z,43.13
2019-05-01T09:36:45.688Z,40.23
2019-05-01T09:41:49.122Z,44.50
2019-05-01T09:46:52.548Z,35.80
2019-05-01T09:52:13.863Z,44.03
2019-05-01T09:57:17.347Z,39.13
2019-05-01T10:02:20.779Z,36.33
2019-05-01T10:07:29.053Z,37.27
2019-05-01T10:12:30.209Z,38.20
2019-05-01T10:17:33.654Z,38.77
2019-05-01T10:22:37.605Z,41.67
2019-05-01T10:27:55.782Z,35.67
2019-05-01T10:33:06.536Z,38.13
2019-05-01T10:38:10.804Z,31.57
2019-05-01T10:43:14.238Z,33.97
2019-05-01T10:48:17.683Z,36.00
2019-05-01T10:53:21.205Z,35.53
2019-05-01T10:58:24.725Z,33.10
2019-05-01T11:03:28.347Z,36.13
2019-05-01T11:08:31.849Z,34.70
2019-05-01T11:13:35.431Z,35.20
2019-05-01T11:18:38.985Z,37.57
2019-05-01T11:23:42.389Z,34.37
2019-05-01T11:28:45.825Z,35.50
2019-05-01T11:33:50.912Z,35.80
2019-05-01T11:39:47.191Z,32.23
2019-05-01T11:44:50.597Z,33.87
2019-05-01T11:49:54.030Z,34.70
2019-05-01T11:57:30.036Z,32.07
2019-05-01T12:02:33.471Z,30.43
2019-05-01T12:07:36.920Z,33.80
2019-05-01T12:12:40.408Z,31.37
2019-05-01T12:17:45.486Z,30.57
2019-05-01T12:22:51.409Z,30.60
2019-05-01T12:27:54.182Z,29.93
2019-05-01T12:32:57.706Z,34.80
2019-05-01T12:38:02.878Z,35.03
2019-05-01T12:43:06.354Z,30.07
2019-05-01T12:48:10.447Z,32.00
2019-05-01T12:53:15.437Z,34.53
2019-05-01T12:58:19.235Z,36.70
2019-05-01T13:03:22.741Z,29.73
2019-05-01T13:08:26.588Z,28.60
2019-05-01T13:13:30.053Z,31.10
2019-05-01T13:18:33.483Z,30.27
2019-05-01T13:23:36.895Z,29.77
2019-05-01T13:28:57.976Z,32.27
2019-05-01T13:34:01.657Z,30.77
2019-05-01T13:39:08.124Z,33.43
2019-05-01T13:44:11.536Z,32.80
2019-05-01T13:49:15.032Z,32.13
2019-05-01T13:54:18.605Z,34.30
2019-05-01T13:59:22.078Z,32.47
2019-05-01T14:04:25.778Z,36.13
2019-05-01T14:09:30.911Z,29.97
2019-05-01T14:14:34.462Z,35.17
2019-05-01T14:19:39.608Z,31.30
2019-05-01T14:24:50.610Z,37.53
2019-05-01T14:29:54.367Z,35.13
2019-05-01T14:34:57.865Z,27.33
2019-05-01T14:40:01.290Z,33.03
2019-05-01T14:45:07.757Z,27.60
2019-05-01T14:50:11.635Z,25.83
2019-05-01T14:55:15.147Z,31.53
2019-05-01T15:00:19.781Z,26.97
2019-05-01T15:05:23.234Z,30.10
2019-05-01T15:10:26.674Z,26.83
2019-05-01T15:20:49.754Z,28.03
2019-05-01T15:45:22.457Z,33.63
2019-05-01T15:50:25.799Z,33.13
2019-05-01T15:55:29.851Z,29.17
2019-05-01T16:00:33.228Z,30.67
2019-05-01T16:05:36.812Z,27.07
2019-05-01T16:10:41.981Z,25.03
2019-05-01T16:15:45.432Z,30.90
2019-05-01T16:20:48.860Z,26.27
2019-05-01T16:25:52.373Z,27.63
2019-05-01T16:30:55.803Z,29.40
2019-05-01T16:35:59.225Z,30.47
2019-05-01T16:41:04.298Z,25.50
2019-05-01T16:46:07.855Z,33.60
2019-05-01T16:51:11.258Z,30.73
2019-05-01T16:56:15.080Z,39.50
2019-05-01T17:01:20.215Z,32.80
2019-05-01T17:06:41.713Z,28.33
2019-05-01T17:11:45.221Z,31.50
2019-05-01T17:16:48.636Z,31.57
2019-05-01T17:21:52.053Z,29.63
2019-05-01T17:26:55.502Z,35.60
2019-05-01T17:31:58.990Z,35.23
2019-05-01T17:37:02.413Z,30.30
2019-05-01T17:42:06.099Z,30.23
2019-05-01T17:47:09.495Z,27.87
2019-05-01T17:52:12.951Z,26.50
2019-05-01T17:57:16.402Z,34.00
2019-05-01T18:02:30.248Z,32.20
2019-05-01T18:07:35.005Z,29.50
2019-05-01T18:12:38.527Z,29.57
2019-05-01T18:17:41.943Z,31.93
2019-05-01T18:22:56.001Z,30.30
2019-05-01T18:28:03.906Z,27.70
2019-05-01T18:33:07.787Z,29.33
2019-05-01T18:38:15.722Z,40.03
2019-05-01T18:43:19.417Z,30.77
2019-05-01T18:48:24.395Z,30.30
2019-05-01T18:53:28.144Z,30.33
2019-05-01T18:58:31.571Z,30.70
2019-05-01T19:03:37.296Z,128.53
2019-05-01T19:08:40.597Z,38.63
2019-05-01T19:13:44.231Z,34.33
2019-05-01T19:18:47.843Z,33.77
2019-05-01T19:23:51.260Z,36.73
2019-05-01T19:28:54.682Z,36.57
2019-05-01T19:33:59.193Z,38.27
2019-05-01T19:39:06.773Z,38.47
2019-05-01T19:44:13.795Z,34.70
2019-05-01T19:49:15.418Z,38.13
2019-05-01T19:54:23.072Z,37.03
2019-05-01T19:59:24.656Z,31.13
2019-05-01T20:04:28.097Z,37.83
2019-05-01T20:09:31.631Z,36.17
2019-05-01T20:14:35.070Z,33.87
2019-05-01T20:19:38.565Z,35.97
2019-05-01T20:24:44.284Z,45.43
2019-05-01T20:29:47.323Z,39.83
2019-05-01T20:34:52.794Z,42.07
2019-05-01T20:40:10.136Z,35.43
2019-05-01T20:45:05.616Z,37.37
2019-05-01T20:50:07.669Z,37.50
2019-05-01T20:55:11.262Z,47.80
2019-05-01T21:00:16.951Z,41.17
2019-05-01T21:05:22.944Z,36.80
2019-05-01T21:10:29.980Z,45.53
2019-05-01T21:15:33.178Z,41.03
2019-05-01T21:20:36.640Z,38.40
2019-05-01T21:25:40.185Z,35.73
2019-05-01T21:30:47.354Z,37.87
2019-05-01T21:35:48.905Z,35.23
2019-05-01T21:40:53.868Z,33.37
2019-05-01T21:45:57.407Z,40.83
2019-05-01T21:51:03.369Z,33.40
2019-05-01T21:56:06.538Z,33.47
2019-05-01T22:01:11.530Z,30.23
2019-05-01T22:06:15.522Z,34.17
2019-05-01T22:11:20.037Z,32.70
2019-05-01T22:16:27.707Z,32.07
2019-05-01T22:21:38.707Z,27.30
2019-05-01T22:26:49.470Z,28.90
2019-05-01T22:32:03.209Z,27.97
2019-05-01T22:37:06.702Z,25.90
2019-05-01T22:42:10.744Z,28.27
2019-05-01T22:47:14.984Z,27.67
2019-05-01T22:52:19.596Z,25.00
2019-05-01T22:57:23.016Z,30.13
2019-05-01T23:02:29.603Z,25.70
2019-05-01T23:07:32.993Z,23.30
2019-05-01T23:12:36.472Z,25.70
2019-05-01T23:17:41.544Z,27.17
2019-05-01T23:22:45.156Z,24.80
2019-05-01T23:27:48.520Z,26.70
2019-05-01T23:32:51.993Z,25.67
2019-05-01T23:37:55.473Z,26.47
2019-05-01T23:42:58.921Z,24.73
2019-05-01T23:48:02.364Z,34.13
2019-05-01T23:53:09.109Z,23.23
2019-05-01T23:58:10.972Z,27.03
